Wednesday, June 20, 2018, 10:57 AM EDT
Back to Local

KDKK, Chautauqua County/dunkirk

Location: Dunkirk, NY, United States Lat: 42.5
Local Time: 10:57 AM EDT (14:57 GMT) Lon: -79.283
Time Zone: US/Eastern Elev: 692 ft

Show me the last for .
Show Decoded

2018-06-20 09:53 METAR KDKK 201353Z AUTO 33005KT 10SM -RA OVC080 18/16 A2991 RMK AO2 SLP128 P0000
                 T01830156 $ =
2018-06-20 08:53 METAR KDKK 201253Z AUTO 36003KT 10SM -RA 18/14 A2991 RMK AO2 RAB52 SLP125 P0000
                 T01830144 $ =
2018-06-20 07:53 METAR KDKK 201153Z AUTO 00000KT 10SM OVC080 18/14 A2993 RMK AO2 SLP131 T01830144
                 10183 20167 51007 $ =
2018-06-20 06:53 METAR KDKK 201053Z AUTO 00000KT 10SM OVC090 18/14 A2992 RMK AO2 SLP130 T01780139
                 $ =
2018-06-20 05:53 METAR KDKK 200953Z AUTO 10003KT 10SM FEW075 OVC090 17/14 A2991 RMK AO2 SLP127
                 T01670139 $ =
2018-06-20 04:53 METAR KDKK 200853Z AUTO 06004KT 10SM OVC095 17/14 A2990 RMK AO2 SLP124 T01670139
                 58006 $ =
2018-06-20 03:53 METAR KDKK 200753Z AUTO 00000KT 10SM OVC095 17/14 A2992 RMK AO2 SLP128 T01720139
                 $ =
2018-06-20 02:53 METAR KDKK 200653Z AUTO 00000KT 10SM OVC100 17/13 A2993 RMK AO2 SLP131 T01720128
                 $ =
2018-06-20 01:53 METAR KDKK 200553Z AUTO 00000KT 10SM OVC110 18/12 A2992 RMK AO2 SLP130 T01780122
                 10206 20172 56013 =
2018-06-20 00:53 METAR KDKK 200453Z AUTO 08004KT 10SM BKN120 18/12 A2993 RMK AO2 SLP133 T01780117
                 402280172 =
2018-06-19 23:53 METAR KDKK 200353Z AUTO 00000KT 10SM CLR 17/13 A2995 RMK AO2 SLP139 T01720133 =
2018-06-19 22:53 METAR KDKK 200253Z AUTO 00000KT 10SM CLR 18/13 A2996 RMK AO2 SLP143 T01780133
                 50002 =
2018-06-19 21:53 METAR KDKK 200153Z AUTO 00000KT 10SM CLR 18/14 A2996 RMK AO2 SLP144 T01830139 =
2018-06-19 20:53 METAR KDKK 200053Z AUTO 14003KT 10SM CLR 19/13 A2996 RMK AO2 SLP141 T01890133 =
2018-06-19 19:53 METAR KDKK 192353Z AUTO 03004KT 10SM CLR 21/12 A2995 RMK AO2 SLP141 T02060122
                 10228 20206 57009 =
2018-06-19 18:53 METAR KDKK 192253Z AUTO 03005KT 10SM CLR 22/12 A2996 RMK AO2 SLP144 T02170117 =
2018-06-19 17:53 METAR KDKK 192153Z AUTO 35006KT 10SM CLR 23/13 A2997 RMK AO2 SLP147 T02280128 =
2018-06-19 16:53 METAR KDKK 192053Z AUTO 35010KT 10SM CLR 22/12 A2998 RMK AO2 SLP150 T02220122
                 58008 =
2018-06-19 15:53 METAR KDKK 191953Z AUTO 36011KT 10SM CLR 22/11 A2999 RMK AO2 SLP150 T02220111 =
2018-06-19 14:53 METAR KDKK 191853Z AUTO 35008KT 10SM CLR 22/15 A3001 RMK AO2 SLP157 T02170150 =
2018-06-19 13:53 METAR KDKK 191753Z AUTO 04011KT 10SM CLR 22/14 A3001 RMK AO2 SLP157 T02220144
                 10228 20189 58002 =
2018-06-19 12:53 METAR KDKK 191653Z AUTO 01012KT 10SM CLR 22/14 A3002 RMK AO2 SLP161 T02220144 =
2018-06-19 11:53 METAR KDKK 191553Z AUTO 03011KT 10SM CLR 22/16 A3001 RMK AO2 SLP157 T02220156 =

Support USWX by starting your Amazon purchase here.